createdAt,value
2023-03-10T00:00:59.151Z,19.13
2023-03-10T00:03:32.306Z,17.95
2023-03-10T00:06:05.730Z,20.50
2023-03-10T00:08:38.930Z,18.50
2023-03-10T00:11:12.370Z,19.48
2023-03-10T00:13:47.029Z,18.40
2023-03-10T00:16:26.628Z,18.65
2023-03-10T00:19:00.978Z,16.90
2023-03-10T00:21:34.916Z,13.98
2023-03-10T00:26:41.739Z,10.48
2023-03-10T00:29:16.681Z,9.73
2023-03-10T00:34:21.009Z,9.15
2023-03-10T00:36:54.253Z,8.47
2023-03-10T00:39:27.335Z,8.25
2023-03-10T00:42:00.823Z,9.33
2023-03-10T00:44:33.768Z,9.18
2023-03-10T00:47:07.248Z,8.90
2023-03-10T00:49:41.125Z,8.18
2023-03-10T00:52:14.172Z,8.88
2023-03-10T00:54:47.122Z,9.05
2023-03-10T00:57:20.370Z,8.45
2023-03-10T00:59:54.503Z,8.18
2023-03-10T01:02:27.451Z,8.60
2023-03-10T01:05:02.126Z,9.55
2023-03-10T01:07:36.435Z,9.68
2023-03-10T01:10:11.668Z,10.60
2023-03-10T01:12:45.144Z,9.58
2023-03-10T01:15:18.202Z,9.63
2023-03-10T01:17:50.896Z,10.65
2023-03-10T01:20:23.898Z,9.55
2023-03-10T01:22:56.488Z,10.38
2023-03-10T01:25:30.438Z,10.13
2023-03-10T01:28:03.152Z,9.75
2023-03-10T01:30:36.250Z,10.25
2023-03-10T01:33:11.738Z,10.43
2023-03-10T01:38:17.047Z,9.95
2023-03-10T01:40:51.717Z,10.10
2023-03-10T01:43:31.406Z,10.13
2023-03-10T01:46:27.225Z,10.93
2023-03-10T01:49:05.548Z,10.08
2023-03-10T01:51:41.034Z,11.30
2023-03-10T01:54:18.580Z,11.70
2023-03-10T01:56:52.628Z,10.90
2023-03-10T02:01:59.514Z,10.80
2023-03-10T02:04:43.939Z,11.73
2023-03-10T02:07:20.378Z,12.68
2023-03-10T02:09:54.985Z,13.65
2023-03-10T02:12:28.621Z,13.50
2023-03-10T02:15:02.192Z,13.55
2023-03-10T02:17:36.847Z,12.58
2023-03-10T02:23:17.435Z,16.57
2023-03-10T02:25:58.223Z,22.15
2023-03-10T02:28:31.268Z,23.45
2023-03-10T02:31:05.072Z,22.17
2023-03-10T02:33:40.258Z,17.57
2023-03-10T02:36:20.956Z,16.97
2023-03-10T02:38:53.978Z,14.47
2023-03-10T02:41:37.611Z,16.62
2023-03-10T02:44:15.075Z,16.17
2023-03-10T02:46:48.119Z,14.30
2023-03-10T02:49:23.756Z,14.90
2023-03-10T02:51:58.213Z,14.20
2023-03-10T02:57:03.397Z,14.98
2023-03-10T02:59:36.603Z,17.12
2023-03-10T03:02:10.541Z,19.75
2023-03-10T03:04:44.122Z,20.52
2023-03-10T03:07:17.136Z,22.42
2023-03-10T03:09:50.391Z,20.63
2023-03-10T03:12:23.347Z,20.52
2023-03-10T03:14:56.887Z,20.65
2023-03-10T03:20:03.058Z,18.00
2023-03-10T03:22:36.953Z,19.55
2023-03-10T03:25:11.814Z,20.48
2023-03-10T03:27:45.865Z,20.08
2023-03-10T03:30:26.347Z,17.42
2023-03-10T03:32:59.745Z,15.18
2023-03-10T03:35:36.203Z,15.00
2023-03-10T03:38:09.608Z,13.68
2023-03-10T03:45:51.730Z,11.80
2023-03-10T03:48:25.597Z,11.33
2023-03-10T03:50:58.568Z,11.05
2023-03-10T03:53:34.293Z,9.95
2023-03-10T03:56:08.475Z,9.55
2023-03-10T03:58:43.308Z,10.35
2023-03-10T04:01:17.834Z,10.80
2023-03-10T04:03:52.460Z,9.75
2023-03-10T04:06:25.442Z,9.68
2023-03-10T04:08:59.009Z,9.58
2023-03-10T04:11:33.216Z,8.30
2023-03-10T04:14:07.088Z,9.00
2023-03-10T04:16:40.820Z,8.63
2023-03-10T04:19:14.315Z,9.78
2023-03-10T04:21:49.106Z,8.53
2023-03-10T04:24:22.268Z,9.97
2023-03-10T04:26:56.446Z,8.73
2023-03-10T04:29:29.827Z,9.25
2023-03-10T04:32:05.811Z,9.13
2023-03-10T04:34:41.344Z,9.23
2023-03-10T04:37:15.815Z,8.95
2023-03-10T04:39:49.393Z,9.60
2023-03-10T04:42:22.526Z,8.43
2023-03-10T04:44:57.201Z,9.25
2023-03-10T04:47:30.670Z,9.13
2023-03-10T04:50:07.092Z,8.43
2023-03-10T04:52:41.592Z,9.13
2023-03-10T04:55:16.274Z,7.40
2023-03-10T05:00:22.471Z,8.13
2023-03-10T05:02:56.117Z,8.68
2023-03-10T05:05:29.307Z,8.05
2023-03-10T05:08:04.108Z,7.92
2023-03-10T05:10:39.508Z,9.08
2023-03-10T05:13:13.196Z,8.00
2023-03-10T05:15:47.592Z,7.25
2023-03-10T05:18:21.088Z,7.72
2023-03-10T05:20:59.664Z,7.58
2023-03-10T05:23:34.141Z,7.40
2023-03-10T05:26:09.249Z,7.75
2023-03-10T05:28:43.281Z,7.62
2023-03-10T05:31:20.129Z,7.37
2023-03-10T05:33:54.195Z,7.45
2023-03-10T05:36:27.850Z,8.30
2023-03-10T05:39:00.803Z,6.30
2023-03-10T05:41:35.362Z,8.15
2023-03-10T05:44:08.369Z,6.83
2023-03-10T05:46:42.125Z,8.18
2023-03-10T05:49:15.388Z,7.10
2023-03-10T05:51:48.773Z,7.28
2023-03-10T05:54:21.845Z,7.28
2023-03-10T05:56:55.078Z,6.90
2023-03-10T05:59:29.198Z,6.60
2023-03-10T06:02:02.262Z,7.60
2023-03-10T06:04:35.224Z,7.33
2023-03-10T06:07:09.073Z,6.30
2023-03-10T06:09:42.022Z,6.95
2023-03-10T06:12:15.582Z,6.87
2023-03-10T06:14:49.111Z,7.55
2023-03-10T06:17:22.349Z,7.03
2023-03-10T06:19:55.333Z,7.22
2023-03-10T06:22:31.070Z,6.72
2023-03-10T06:25:03.096Z,6.87
2023-03-10T06:27:36.909Z,6.83
2023-03-10T06:30:11.734Z,7.25
2023-03-10T06:32:46.451Z,7.70
2023-03-10T06:35:19.916Z,7.67
2023-03-10T06:37:53.601Z,7.47
2023-03-10T06:40:26.507Z,7.83
2023-03-10T06:42:59.606Z,7.08
2023-03-10T06:45:33.147Z,7.37
2023-03-10T06:48:06.579Z,7.37
2023-03-10T06:50:43.725Z,7.67
2023-03-10T06:53:20.098Z,7.42
2023-03-10T06:56:03.143Z,7.15
2023-03-10T06:58:38.410Z,8.15
2023-03-10T07:01:13.865Z,7.17
2023-03-10T07:03:46.906Z,7.70
2023-03-10T07:06:20.383Z,6.63
2023-03-10T07:08:54.746Z,8.20
2023-03-10T07:11:28.477Z,7.42
2023-03-10T07:14:01.329Z,7.03
2023-03-10T07:16:34.437Z,7.30
2023-03-10T07:19:08.000Z,7.00
2023-03-10T07:21:41.090Z,7.27
2023-03-10T07:24:14.880Z,7.22
2023-03-10T07:26:48.148Z,6.62
2023-03-10T07:29:21.472Z,8.58
2023-03-10T07:31:55.595Z,8.55
2023-03-10T07:34:29.639Z,7.15
2023-03-10T07:37:03.420Z,7.15
2023-03-10T07:39:37.017Z,7.85
2023-03-10T07:42:10.289Z,7.53
2023-03-10T07:44:43.473Z,8.20
2023-03-10T07:47:16.646Z,7.72
2023-03-10T07:49:49.678Z,7.58
2023-03-10T07:52:23.016Z,7.17
2023-03-10T07:54:56.094Z,6.42
2023-03-10T07:57:30.679Z,7.62
2023-03-10T08:00:09.520Z,7.22
2023-03-10T08:02:45.749Z,7.42
2023-03-10T08:05:19.258Z,7.13
2023-03-10T08:07:52.881Z,6.75
2023-03-10T08:10:26.132Z,6.92
2023-03-10T08:12:58.849Z,6.47
2023-03-10T08:15:32.247Z,7.87
2023-03-10T08:18:05.972Z,7.93
2023-03-10T08:20:40.713Z,6.35
2023-03-10T08:23:14.134Z,6.33
2023-03-10T08:25:48.217Z,6.83
2023-03-10T08:28:21.010Z,6.45
2023-03-10T08:31:04.460Z,6.55
2023-03-10T08:33:30.953Z,6.75
2023-03-10T08:36:10.824Z,6.45
2023-03-10T08:38:45.195Z,6.92
2023-03-10T08:41:23.030Z,7.40
2023-03-10T08:43:57.916Z,7.72
2023-03-10T08:46:33.324Z,6.70
2023-03-10T08:49:06.768Z,6.90
2023-03-10T08:51:40.065Z,6.45
2023-03-10T08:54:19.001Z,6.60
2023-03-10T08:56:52.649Z,6.33
2023-03-10T08:59:25.606Z,6.17
2023-03-10T09:01:59.193Z,6.37
2023-03-10T09:04:32.050Z,6.17
2023-03-10T09:07:05.017Z,6.60
2023-03-10T09:09:38.132Z,7.00
2023-03-10T09:12:11.253Z,6.95
2023-03-10T09:14:44.281Z,6.70
2023-03-10T09:17:17.229Z,6.55
2023-03-10T09:19:50.174Z,6.37
2023-03-10T09:22:24.156Z,5.80
2023-03-10T09:24:59.453Z,5.97
2023-03-10T09:27:31.665Z,5.95
2023-03-10T09:30:05.661Z,7.28
2023-03-10T09:32:39.646Z,6.45
2023-03-10T09:35:13.667Z,5.87
2023-03-10T09:37:47.751Z,5.78
2023-03-10T09:40:22.032Z,5.90
2023-03-10T09:43:02.344Z,5.62
2023-03-10T09:46:04.597Z,5.80
2023-03-10T09:49:10.214Z,5.22
2023-03-10T09:51:47.777Z,5.17
2023-03-10T09:55:03.970Z,5.90
2023-03-10T09:57:37.517Z,6.03
2023-03-10T10:02:47.764Z,5.33
2023-03-10T10:05:28.349Z,5.22
2023-03-10T10:08:07.461Z,5.33
2023-03-10T10:10:41.064Z,5.67
2023-03-10T10:13:17.810Z,5.12
2023-03-10T10:16:13.097Z,4.65
2023-03-10T10:18:46.676Z,4.78
2023-03-10T10:21:40.353Z,5.05
2023-03-10T10:24:04.874Z,5.37
2023-03-10T10:26:38.361Z,5.92
2023-03-10T10:29:24.453Z,5.05
2023-03-10T10:32:13.649Z,4.40
2023-03-10T10:34:49.538Z,5.35
2023-03-10T10:37:40.199Z,4.42
2023-03-10T10:40:30.123Z,5.42
2023-03-10T10:43:07.948Z,3.60
2023-03-10T10:45:42.780Z,4.72
2023-03-10T10:48:43.796Z,4.78
2023-03-10T10:51:34.291Z,4.50
2023-03-10T10:54:29.891Z,4.70
2023-03-10T10:57:06.125Z,4.40
2023-03-10T10:59:39.950Z,5.03
2023-03-10T11:02:35.952Z,4.80
2023-03-10T11:05:19.492Z,4.72
2023-03-10T11:07:52.989Z,4.55
2023-03-10T11:10:29.374Z,5.03
2023-03-10T11:13:07.490Z,4.37
2023-03-10T11:15:56.118Z,3.83
2023-03-10T11:18:44.275Z,4.20
2023-03-10T11:21:36.958Z,3.77
2023-03-10T11:24:27.608Z,3.77
2023-03-10T11:27:17.381Z,4.20
2023-03-10T11:30:04.873Z,4.15
2023-03-10T11:33:00.725Z,4.35
2023-03-10T11:35:46.328Z,4.33
2023-03-10T11:38:45.716Z,4.58
2023-03-10T11:41:26.335Z,4.33
2023-03-10T11:44:22.687Z,4.70
2023-03-10T11:47:01.662Z,3.65
2023-03-10T11:49:44.355Z,3.60
2023-03-10T11:52:22.799Z,4.20
2023-03-10T11:55:07.416Z,3.27
2023-03-10T11:57:44.899Z,4.05
2023-03-10T12:00:28.680Z,3.50
2023-03-10T12:03:18.521Z,3.30
2023-03-10T12:05:59.392Z,3.83
2023-03-10T12:08:35.890Z,3.42
2023-03-10T12:11:14.200Z,3.30
2023-03-10T12:13:54.079Z,3.40
2023-03-10T12:16:33.324Z,3.70
2023-03-10T12:19:07.871Z,2.65
2023-03-10T12:21:46.388Z,2.55
2023-03-10T12:25:01.696Z,3.12
2023-03-10T12:28:22.839Z,3.37
2023-03-10T12:31:19.681Z,3.52
2023-03-10T12:34:18.391Z,3.55
2023-03-10T12:37:12.556Z,4.60
2023-03-10T12:39:47.153Z,4.40
2023-03-10T12:42:37.165Z,4.80
2023-03-10T12:45:33.111Z,4.67
2023-03-10T12:48:15.866Z,5.15
2023-03-10T12:50:56.702Z,5.60
2023-03-10T12:53:49.251Z,5.87
2023-03-10T12:56:36.963Z,6.35
2023-03-10T13:04:06.138Z,6.70
2023-03-10T13:07:02.443Z,5.90
2023-03-10T13:09:43.954Z,4.97
2023-03-10T13:12:40.327Z,4.87
2023-03-10T13:15:25.286Z,5.65
2023-03-10T13:18:19.692Z,5.72
2023-03-10T13:20:54.212Z,5.17
2023-03-10T13:23:34.854Z,5.42
2023-03-10T13:26:17.570Z,5.53
2023-03-10T13:29:09.933Z,7.05
2023-03-10T13:31:55.064Z,6.10
2023-03-10T13:34:31.638Z,5.40
2023-03-10T13:37:11.590Z,6.55
2023-03-10T13:39:46.425Z,6.33
2023-03-10T13:42:42.971Z,6.03
2023-03-10T13:45:05.354Z,5.47
2023-03-10T13:50:15.896Z,6.20
2023-03-10T13:53:00.570Z,7.55
2023-03-10T13:58:09.116Z,7.87
2023-03-10T14:00:44.228Z,7.70
2023-03-10T14:03:17.686Z,7.67
2023-03-10T14:05:52.543Z,7.87
2023-03-10T14:08:32.360Z,8.30
2023-03-10T14:11:37.032Z,6.80
2023-03-10T14:14:12.535Z,7.95
2023-03-10T14:16:52.680Z,6.67
2023-03-10T14:19:48.424Z,7.40
2023-03-10T14:22:35.749Z,6.95
2023-03-10T14:25:17.942Z,6.90
2023-03-10T14:28:03.205Z,8.40
2023-03-10T14:30:38.154Z,7.55
2023-03-10T14:33:16.579Z,7.17
2023-03-10T14:35:50.288Z,7.85
2023-03-10T14:38:23.879Z,6.92
2023-03-10T14:40:57.260Z,7.20
2023-03-10T14:43:31.028Z,7.78
2023-03-10T14:46:06.181Z,6.85
2023-03-10T14:48:42.226Z,8.33
2023-03-10T14:51:32.598Z,7.50
2023-03-10T14:53:53.516Z,8.05
2023-03-10T14:56:26.939Z,7.97
2023-03-10T14:59:01.422Z,7.15
2023-03-10T15:01:34.348Z,8.05
2023-03-10T15:04:07.673Z,7.65
2023-03-10T15:06:40.916Z,7.85
2023-03-10T15:09:14.534Z,7.15
2023-03-10T15:11:47.809Z,8.60
2023-03-10T15:14:21.971Z,8.40
2023-03-10T15:16:55.772Z,8.28
2023-03-10T15:19:29.866Z,7.83
2023-03-10T15:22:02.610Z,8.65
2023-03-10T15:24:37.425Z,8.33
2023-03-10T15:27:14.970Z,8.13
2023-03-10T15:29:48.608Z,8.35
2023-03-10T15:32:22.022Z,8.73
2023-03-10T15:34:56.393Z,9.85
2023-03-10T15:37:29.252Z,9.88
2023-03-10T15:40:02.067Z,11.73
2023-03-10T15:42:35.640Z,12.82
2023-03-10T15:45:09.488Z,14.43
2023-03-10T15:47:43.242Z,12.98
2023-03-10T15:50:21.235Z,13.68
2023-03-10T15:52:57.174Z,13.10
2023-03-10T15:55:31.145Z,12.90
2023-03-10T15:58:04.020Z,13.68
2023-03-10T16:00:37.536Z,14.17
2023-03-10T16:03:11.511Z,15.45
2023-03-10T16:05:50.752Z,15.75
2023-03-10T16:08:23.985Z,14.68
2023-03-10T16:10:57.871Z,16.42
2023-03-10T16:13:32.891Z,21.80
2023-03-10T16:16:09.308Z,16.02
2023-03-10T16:18:44.109Z,16.12
2023-03-10T16:21:32.202Z,15.98
2023-03-10T16:24:09.757Z,15.65
2023-03-10T16:26:44.726Z,16.80
2023-03-10T16:29:20.164Z,15.20
2023-03-10T16:31:54.442Z,15.75
2023-03-10T16:34:28.977Z,16.40
2023-03-10T16:37:02.994Z,16.77
2023-03-10T16:39:38.275Z,18.05
2023-03-10T16:42:12.643Z,21.10
2023-03-10T16:44:45.541Z,26.17
2023-03-10T16:47:18.930Z,27.87
2023-03-10T16:49:52.542Z,25.17
2023-03-10T16:52:25.875Z,27.22
2023-03-10T16:55:04.632Z,43.20
2023-03-10T16:57:37.894Z,30.82
2023-03-10T17:00:12.589Z,42.25
2023-03-10T17:02:46.121Z,31.20
2023-03-10T17:05:19.538Z,28.32
2023-03-10T17:07:56.268Z,28.62
2023-03-10T17:10:29.565Z,29.30
2023-03-10T17:13:02.547Z,28.32
2023-03-10T17:15:36.518Z,33.90
2023-03-10T17:18:10.133Z,37.00
2023-03-10T17:20:43.527Z,32.57
2023-03-10T17:23:17.496Z,42.20
2023-03-10T17:25:50.736Z,38.60
2023-03-10T17:28:23.944Z,32.70
2023-03-10T17:30:56.858Z,33.33
2023-03-10T17:33:30.236Z,34.43
2023-03-10T17:36:13.205Z,36.75
2023-03-10T17:38:47.161Z,36.48
2023-03-10T17:41:20.186Z,37.45
2023-03-10T17:43:55.986Z,38.35
2023-03-10T17:46:31.452Z,42.73
2023-03-10T17:49:05.998Z,43.08
2023-03-10T17:51:41.065Z,50.95
2023-03-10T17:54:17.640Z,47.55
2023-03-10T17:56:51.076Z,46.70
2023-03-10T17:59:24.125Z,47.40
2023-03-10T18:01:56.958Z,43.20
2023-03-10T18:04:30.857Z,42.50
2023-03-10T18:07:04.501Z,35.68
2023-03-10T18:09:41.700Z,34.08
2023-03-10T18:12:14.644Z,30.37
2023-03-10T18:14:48.545Z,29.72
2023-03-10T18:17:21.764Z,35.08
2023-03-10T18:19:56.339Z,26.73
2023-03-10T18:22:29.907Z,25.08
2023-03-10T18:25:04.250Z,23.70
2023-03-10T18:27:37.844Z,27.73
2023-03-10T18:30:14.226Z,31.23
2023-03-10T18:32:47.843Z,35.38
2023-03-10T18:35:21.548Z,36.23
2023-03-10T18:37:55.699Z,26.82
2023-03-10T18:40:29.277Z,26.33
2023-03-10T18:43:02.262Z,23.57
2023-03-10T18:45:35.906Z,19.50
2023-03-10T18:48:09.823Z,15.53
2023-03-10T18:50:43.031Z,12.65
2023-03-10T18:53:16.247Z,12.15
2023-03-10T18:55:49.036Z,13.30
2023-03-10T18:58:23.316Z,12.30
2023-03-10T19:00:56.593Z,12.53
2023-03-10T19:03:33.394Z,12.43
2023-03-10T19:06:07.366Z,11.83
2023-03-10T19:11:15.574Z,11.75
2023-03-10T19:13:48.535Z,11.90
2023-03-10T19:18:55.051Z,14.23
2023-03-10T19:21:28.032Z,14.63
2023-03-10T19:24:00.835Z,13.10
2023-03-10T19:26:34.246Z,13.90
2023-03-10T19:31:40.896Z,13.03
2023-03-10T19:34:14.375Z,12.05
2023-03-10T19:36:47.532Z,11.63
2023-03-10T19:39:22.710Z,15.53
2023-03-10T19:41:55.922Z,12.88
2023-03-10T19:44:29.766Z,11.22
2023-03-10T19:47:02.791Z,12.58
2023-03-10T19:49:36.448Z,14.40
2023-03-10T19:52:09.326Z,20.97
2023-03-10T19:54:42.411Z,14.68
2023-03-10T19:57:15.386Z,16.17
2023-03-10T19:59:49.058Z,14.60
2023-03-10T20:02:21.868Z,15.28
2023-03-10T20:04:55.042Z,11.40
2023-03-10T20:07:28.090Z,13.38
2023-03-10T20:10:01.466Z,13.83
2023-03-10T20:12:35.004Z,11.20
2023-03-10T20:15:09.931Z,11.88
2023-03-10T20:17:43.431Z,12.53
2023-03-10T20:20:18.663Z,15.68
2023-03-10T20:22:52.666Z,15.32
2023-03-10T20:25:27.448Z,12.50
2023-03-10T20:28:00.461Z,12.70
2023-03-10T20:30:33.812Z,12.83
2023-03-10T20:33:07.704Z,12.53
2023-03-10T20:35:41.564Z,13.32
2023-03-10T20:40:50.203Z,11.97
2023-03-10T20:43:23.148Z,11.78
2023-03-10T20:45:56.475Z,11.48
2023-03-10T20:48:30.045Z,12.35
2023-03-10T20:51:03.960Z,11.28
2023-03-10T20:53:38.258Z,11.80
2023-03-10T20:58:44.901Z,26.60
2023-03-10T21:01:23.066Z,30.10
2023-03-10T21:03:56.846Z,20.12
2023-03-10T21:06:30.592Z,16.73
2023-03-10T21:09:06.326Z,12.95
2023-03-10T21:11:40.982Z,13.22
2023-03-10T21:14:14.838Z,12.93
2023-03-10T21:16:47.950Z,13.68
2023-03-10T21:19:21.412Z,11.88
2023-03-10T21:21:55.062Z,12.65
2023-03-10T21:24:28.061Z,11.10
2023-03-10T21:27:01.397Z,12.55
2023-03-10T21:29:37.041Z,11.95
2023-03-10T21:32:10.306Z,11.80
2023-03-10T21:34:43.245Z,14.78
2023-03-10T21:37:16.228Z,12.43
2023-03-10T21:39:51.200Z,21.73
2023-03-10T21:42:24.049Z,24.63
2023-03-10T21:44:57.626Z,29.07
2023-03-10T21:47:30.449Z,29.25
2023-03-10T21:50:04.615Z,30.82
2023-03-10T21:52:37.944Z,34.92
2023-03-10T21:55:18.658Z,32.20
2023-03-10T21:57:52.189Z,28.38
2023-03-10T22:00:25.020Z,22.15
2023-03-10T22:02:58.494Z,22.82
2023-03-10T22:05:31.918Z,20.90
2023-03-10T22:08:05.363Z,18.97
2023-03-10T22:10:38.627Z,20.00
2023-03-10T22:13:11.844Z,18.95
2023-03-10T22:15:45.374Z,17.82
2023-03-10T22:18:18.816Z,15.90
2023-03-10T22:20:51.608Z,18.00
2023-03-10T22:24:25.236Z,15.83
2023-03-10T22:27:01.794Z,15.58
2023-03-10T22:29:35.517Z,26.20
2023-03-10T22:32:09.317Z,17.77
2023-03-10T22:34:42.462Z,17.00
2023-03-10T22:37:15.780Z,17.95
2023-03-10T22:39:49.778Z,14.95
2023-03-10T22:42:23.909Z,14.43
2023-03-10T22:44:57.641Z,13.68
2023-03-10T22:47:30.898Z,12.93
2023-03-10T22:50:05.856Z,13.13
2023-03-10T22:52:39.290Z,13.48
2023-03-10T22:55:19.379Z,13.43
2023-03-10T22:57:53.563Z,12.47
2023-03-10T23:00:27.785Z,12.68
2023-03-10T23:03:01.422Z,12.80
2023-03-10T23:05:35.158Z,12.45
2023-03-10T23:08:09.881Z,12.33
2023-03-10T23:10:44.369Z,12.63
2023-03-10T23:13:20.274Z,12.88
2023-03-10T23:18:26.084Z,12.90
2023-03-10T23:20:59.539Z,13.03
2023-03-10T23:23:34.439Z,14.83
2023-03-10T23:26:08.000Z,13.87
2023-03-10T23:28:42.982Z,14.80
2023-03-10T23:31:17.316Z,13.28
2023-03-10T23:33:50.937Z,13.10
2023-03-10T23:36:24.681Z,12.70
2023-03-10T23:38:57.906Z,13.08
2023-03-10T23:41:32.141Z,12.65
2023-03-10T23:44:05.339Z,12.13
2023-03-10T23:49:12.049Z,11.22
2023-03-10T23:51:46.846Z,12.00
2023-03-10T23:56:54.772Z,11.93
2023-03-10T23:59:28.063Z,12.70
